createdAt,value
2022-10-19T00:01:04.764Z,0.55
2022-10-19T00:03:32.090Z,0.00
2022-10-19T00:05:59.177Z,0.10
2022-10-19T00:08:26.601Z,0.00
2022-10-19T00:10:53.549Z,0.45
2022-10-19T00:13:20.485Z,0.05
2022-10-19T00:15:47.443Z,1.10
2022-10-19T00:18:14.427Z,0.73
2022-10-19T00:20:41.301Z,6.00
2022-10-19T00:23:10.617Z,0.13
2022-10-19T00:25:38.594Z,0.55
2022-10-19T00:28:05.596Z,0.00
2022-10-19T00:30:36.193Z,0.00
2022-10-19T00:33:04.810Z,0.38
2022-10-19T00:35:31.700Z,0.08
2022-10-19T00:37:58.638Z,0.75
2022-10-19T00:40:25.608Z,0.05
2022-10-19T00:42:56.454Z,0.63
2022-10-19T00:45:24.553Z,0.20
2022-10-19T00:47:51.745Z,0.60
2022-10-19T00:50:18.965Z,0.00
2022-10-19T00:52:46.130Z,2.75
2022-10-19T00:55:13.699Z,0.00
2022-10-19T00:57:41.240Z,0.00
2022-10-19T01:00:09.290Z,0.00
2022-10-19T01:02:36.754Z,0.00
2022-10-19T01:05:05.241Z,2.08
2022-10-19T01:07:33.467Z,3.50
2022-10-19T01:10:01.800Z,0.25
2022-10-19T01:12:55.736Z,0.00
2022-10-19T01:15:43.636Z,0.03
2022-10-19T01:18:27.302Z,0.80
2022-10-19T01:21:21.407Z,0.00
2022-10-19T01:24:12.649Z,0.00
2022-10-19T01:26:58.374Z,0.75
2022-10-19T01:29:49.939Z,0.10
2022-10-19T01:32:40.884Z,0.10
2022-10-19T01:35:11.476Z,1.02
2022-10-19T01:37:59.909Z,0.90
2022-10-19T01:40:51.316Z,0.00
2022-10-19T01:43:39.099Z,0.00
2022-10-19T01:46:35.355Z,0.13
2022-10-19T01:49:47.191Z,6.53
2022-10-19T01:52:18.315Z,1.85
2022-10-19T01:57:27.114Z,1.83
2022-10-19T01:59:55.748Z,0.40
2022-10-19T02:02:25.368Z,0.08
2022-10-19T02:04:55.552Z,1.33
2022-10-19T02:07:24.841Z,0.83
2022-10-19T02:09:51.912Z,0.00
2022-10-19T02:12:20.399Z,1.15
2022-10-19T02:14:51.985Z,0.25
2022-10-19T02:17:24.993Z,0.10
2022-10-19T02:19:53.844Z,2.47
2022-10-19T02:22:21.896Z,3.53
2022-10-19T02:24:48.821Z,0.38
2022-10-19T02:27:16.299Z,0.00
2022-10-19T02:29:43.419Z,1.17
2022-10-19T02:32:11.364Z,0.00
2022-10-19T02:34:39.747Z,1.55
2022-10-19T02:37:07.414Z,0.45
2022-10-19T02:39:34.559Z,2.35
2022-10-19T02:42:04.705Z,13.68
2022-10-19T02:45:17.570Z,0.00
2022-10-19T02:47:55.698Z,0.30
2022-10-19T02:50:23.507Z,0.25
2022-10-19T02:52:50.559Z,0.13
2022-10-19T02:55:17.956Z,2.65
2022-10-19T02:57:45.432Z,0.30
2022-10-19T03:00:12.701Z,0.30
2022-10-19T03:02:39.726Z,15.18
2022-10-19T03:05:07.113Z,8.88
2022-10-19T03:07:34.257Z,0.00
2022-10-19T03:10:01.554Z,6.38
2022-10-19T03:12:28.500Z,6.65
2022-10-19T03:14:55.525Z,1.65
2022-10-19T03:17:22.473Z,0.30
2022-10-19T03:19:49.423Z,1.00
2022-10-19T03:22:16.481Z,0.00
2022-10-19T03:24:43.437Z,0.17
2022-10-19T03:27:10.353Z,0.03
2022-10-19T03:29:37.328Z,0.10
2022-10-19T03:32:04.458Z,0.50
2022-10-19T03:34:31.648Z,0.10
2022-10-19T03:36:59.394Z,0.00
2022-10-19T03:39:26.438Z,0.03
2022-10-19T03:41:53.556Z,0.00
2022-10-19T03:44:20.513Z,0.30
2022-10-19T03:46:47.623Z,0.15
2022-10-19T03:49:14.517Z,1.25
2022-10-19T03:51:41.704Z,0.03
2022-10-19T03:54:13.210Z,4.50
2022-10-19T03:56:40.347Z,0.00
2022-10-19T03:59:07.715Z,0.05
2022-10-19T04:01:37.793Z,0.25
2022-10-19T04:04:07.808Z,0.00
2022-10-19T04:06:39.775Z,0.25
2022-10-19T04:09:08.871Z,0.75
2022-10-19T04:11:36.415Z,0.00
2022-10-19T04:14:04.048Z,5.93
2022-10-19T04:16:32.238Z,0.00
2022-10-19T04:19:00.045Z,0.38
2022-10-19T04:21:32.781Z,0.10
2022-10-19T04:24:05.159Z,0.00
2022-10-19T04:26:32.772Z,0.05
2022-10-19T04:29:01.218Z,0.77
2022-10-19T04:31:28.972Z,0.00
2022-10-19T04:33:56.461Z,0.50
2022-10-19T04:36:23.798Z,0.68
2022-10-19T04:38:51.115Z,0.00
2022-10-19T04:41:20.163Z,0.70
2022-10-19T04:43:48.141Z,0.08
2022-10-19T04:46:20.136Z,0.10
2022-10-19T04:48:48.457Z,0.00
2022-10-19T04:51:16.291Z,0.45
2022-10-19T04:53:44.009Z,0.00
2022-10-19T04:56:22.028Z,0.10
2022-10-19T04:58:49.700Z,0.00
2022-10-19T05:01:21.440Z,0.00
2022-10-19T05:03:49.257Z,3.40
2022-10-19T05:06:16.532Z,0.65
2022-10-19T05:08:43.488Z,0.03
2022-10-19T05:11:14.770Z,2.30
2022-10-19T05:13:42.657Z,2.75
2022-10-19T05:16:13.173Z,0.57
2022-10-19T05:18:40.641Z,7.93
2022-10-19T05:21:12.975Z,1.63
2022-10-19T05:23:41.103Z,0.47
2022-10-19T05:26:19.952Z,0.47
2022-10-19T05:28:51.493Z,1.25
2022-10-19T05:31:20.305Z,0.65
2022-10-19T05:33:48.075Z,0.80
2022-10-19T05:36:22.800Z,0.52
2022-10-19T05:38:50.514Z,0.35
2022-10-19T05:41:17.739Z,0.00
2022-10-19T05:43:46.978Z,2.58
2022-10-19T05:46:19.245Z,0.03
2022-10-19T05:48:47.100Z,0.00
2022-10-19T05:51:17.341Z,0.57
2022-10-19T05:53:44.414Z,0.03
2022-10-19T05:56:19.906Z,3.58
2022-10-19T05:58:47.689Z,0.10
2022-10-19T06:01:16.113Z,1.98
2022-10-19T06:03:43.194Z,0.45
2022-10-19T06:06:10.828Z,0.95
2022-10-19T06:08:39.003Z,0.20
2022-10-19T06:11:14.800Z,0.35
2022-10-19T06:13:42.593Z,0.10
2022-10-19T06:16:11.278Z,1.08
2022-10-19T06:18:38.726Z,0.55
2022-10-19T06:21:08.192Z,0.52
2022-10-19T06:23:36.287Z,0.00
2022-10-19T06:26:06.589Z,0.28
2022-10-19T06:28:34.514Z,0.00
2022-10-19T06:31:01.627Z,0.08
2022-10-19T06:33:30.300Z,2.20
2022-10-19T06:36:05.074Z,0.00
2022-10-19T06:38:32.006Z,0.20
2022-10-19T06:41:00.005Z,0.00
2022-10-19T06:43:27.282Z,0.00
2022-10-19T06:45:54.538Z,4.65
2022-10-19T06:48:21.729Z,0.00
2022-10-19T06:50:59.537Z,0.00
2022-10-19T06:53:27.273Z,0.00
2022-10-19T06:55:59.443Z,0.98
2022-10-19T06:58:26.950Z,0.03
2022-10-19T07:01:00.930Z,0.10
2022-10-19T07:03:29.529Z,0.63
2022-10-19T07:05:58.886Z,1.98
2022-10-19T07:08:27.693Z,0.10
2022-10-19T07:10:57.067Z,0.00
2022-10-19T07:13:24.523Z,0.00
2022-10-19T07:15:59.087Z,3.20
2022-10-19T07:18:27.237Z,0.00
2022-10-19T07:20:59.141Z,0.00
2022-10-19T07:23:28.428Z,0.10
2022-10-19T07:26:01.059Z,0.40
2022-10-19T07:28:29.503Z,0.77
2022-10-19T07:30:57.168Z,0.57
2022-10-19T07:33:24.265Z,2.55
2022-10-19T07:35:51.261Z,0.38
2022-10-19T07:38:18.204Z,0.00
2022-10-19T07:40:47.372Z,0.03
2022-10-19T07:43:14.638Z,0.00
2022-10-19T07:45:41.572Z,0.30
2022-10-19T07:48:08.491Z,0.65
2022-10-19T07:50:35.423Z,2.75
2022-10-19T07:53:05.381Z,0.88
2022-10-19T07:55:34.514Z,0.93
2022-10-19T07:58:02.178Z,4.47
2022-10-19T08:00:29.903Z,1.70
2022-10-19T08:03:31.148Z,0.10
2022-10-19T08:05:43.904Z,0.15
2022-10-19T08:08:10.813Z,0.22
2022-10-19T08:10:37.754Z,0.75
2022-10-19T08:13:04.766Z,0.25
2022-10-19T08:15:32.582Z,0.00
2022-10-19T08:18:00.962Z,0.68
2022-10-19T08:20:27.961Z,0.10
2022-10-19T08:22:58.100Z,0.20
2022-10-19T08:25:26.100Z,0.10
2022-10-19T08:27:53.064Z,0.15
2022-10-19T08:30:20.081Z,0.50
2022-10-19T08:32:47.011Z,0.68
2022-10-19T08:35:14.304Z,0.10
2022-10-19T08:37:45.118Z,0.30
2022-10-19T08:40:24.958Z,0.00
2022-10-19T08:43:05.137Z,0.90
2022-10-19T08:48:20.104Z,1.17
2022-10-19T08:50:48.043Z,0.15
2022-10-19T08:53:24.306Z,0.85
2022-10-19T08:56:06.320Z,0.22
2022-10-19T08:58:49.182Z,0.00
2022-10-19T09:01:47.445Z,0.17
2022-10-19T09:04:20.789Z,0.57
2022-10-19T09:07:23.056Z,0.10
2022-10-19T09:10:18.036Z,0.20
2022-10-19T09:12:52.864Z,0.75
2022-10-19T09:15:45.500Z,0.00
2022-10-19T09:18:22.692Z,0.00
2022-10-19T09:20:58.642Z,1.10
2022-10-19T09:23:55.580Z,0.05
2022-10-19T09:26:27.202Z,0.65
2022-10-19T09:28:56.432Z,0.75
2022-10-19T09:31:32.430Z,0.35
2022-10-19T09:34:22.579Z,0.00
2022-10-19T09:36:57.803Z,0.15
2022-10-19T09:39:31.371Z,0.00
2022-10-19T09:42:29.578Z,3.83
2022-10-19T09:44:58.546Z,0.10
2022-10-19T09:47:45.937Z,1.95
2022-10-19T09:50:26.273Z,0.00
2022-10-19T09:53:00.375Z,0.73
2022-10-19T09:55:29.246Z,0.00
2022-10-19T09:58:26.197Z,0.00
2022-10-19T10:00:58.041Z,0.30
2022-10-19T10:03:43.646Z,0.52
2022-10-19T10:06:14.622Z,0.65
2022-10-19T10:08:58.921Z,0.00
2022-10-19T10:11:38.406Z,0.10
2022-10-19T10:14:23.336Z,0.75
2022-10-19T10:17:02.700Z,0.20
2022-10-19T10:19:33.397Z,0.90
2022-10-19T10:22:01.098Z,0.00
2022-10-19T10:24:35.589Z,0.00
2022-10-19T10:27:05.847Z,0.00
2022-10-19T10:29:35.538Z,0.20
2022-10-19T10:32:16.392Z,0.90
2022-10-19T10:35:03.406Z,0.38
2022-10-19T10:37:40.351Z,7.47
2022-10-19T10:40:23.659Z,3.20
2022-10-19T10:42:53.664Z,0.50
2022-10-19T10:45:49.521Z,1.90
2022-10-19T10:48:30.509Z,0.45
2022-10-19T10:50:59.301Z,0.30
2022-10-19T10:53:37.101Z,0.00
2022-10-19T10:56:06.226Z,0.10
2022-10-19T10:58:43.770Z,0.10
2022-10-19T11:01:24.433Z,10.27
2022-10-19T11:04:15.485Z,0.00
2022-10-19T11:06:47.630Z,0.00
2022-10-19T11:09:50.533Z,0.08
2022-10-19T11:12:24.145Z,0.00
2022-10-19T11:15:13.260Z,0.10
2022-10-19T11:17:51.772Z,0.65
2022-10-19T11:20:18.734Z,0.00
2022-10-19T11:23:08.293Z,0.00
2022-10-19T11:25:42.770Z,0.00
2022-10-19T11:28:33.389Z,0.55
2022-10-19T11:31:11.341Z,1.10
2022-10-19T11:36:38.697Z,1.25
2022-10-19T11:39:24.198Z,0.20
2022-10-19T11:42:00.086Z,0.00
2022-10-19T11:44:54.661Z,4.38
2022-10-19T11:47:51.904Z,0.10
2022-10-19T11:50:36.865Z,0.10
2022-10-19T11:53:25.099Z,0.00
2022-10-19T11:55:55.023Z,0.30
2022-10-19T11:58:40.258Z,0.55
2022-10-19T12:01:21.381Z,0.20
2022-10-19T12:06:25.923Z,0.15
2022-10-19T12:09:02.097Z,0.13
2022-10-19T12:11:54.564Z,0.20
2022-10-19T12:14:26.642Z,0.55
2022-10-19T12:17:10.262Z,1.27
2022-10-19T12:19:44.310Z,0.20
2022-10-19T12:22:22.441Z,0.32
2022-10-19T12:24:50.974Z,0.57
2022-10-19T12:27:25.038Z,0.93
2022-10-19T12:29:52.867Z,0.93
2022-10-19T12:32:23.517Z,0.30
2022-10-19T12:35:00.784Z,2.15
2022-10-19T12:37:28.270Z,1.75
2022-10-19T12:40:08.563Z,1.48
2022-10-19T12:42:58.019Z,3.30
2022-10-19T12:45:33.457Z,2.28
2022-10-19T12:48:09.350Z,0.65
2022-10-19T12:50:58.657Z,0.10
2022-10-19T12:53:40.957Z,0.10
2022-10-19T12:56:13.383Z,0.30
2022-10-19T12:58:47.599Z,1.77
2022-10-19T13:01:42.890Z,0.00
2022-10-19T13:04:12.865Z,0.10
2022-10-19T13:07:08.339Z,0.00
2022-10-19T13:09:44.241Z,0.15
2022-10-19T13:12:21.363Z,1.25
2022-10-19T13:15:04.382Z,4.45
2022-10-19T13:17:34.868Z,6.15
2022-10-19T13:20:14.244Z,3.05
2022-10-19T13:23:13.461Z,2.47
2022-10-19T13:25:41.658Z,0.47
2022-10-19T13:28:13.110Z,0.13
2022-10-19T13:30:41.885Z,2.55
2022-10-19T13:33:33.150Z,0.00
2022-10-19T13:36:00.120Z,0.17
2022-10-19T13:38:42.222Z,0.00
2022-10-19T13:41:38.270Z,1.05
2022-10-19T13:44:15.247Z,3.88
2022-10-19T13:47:06.134Z,0.30
2022-10-19T13:49:36.012Z,0.03
2022-10-19T13:52:21.787Z,0.10
2022-10-19T13:55:16.477Z,0.05
2022-10-19T13:58:06.622Z,0.05
2022-10-19T14:01:04.332Z,0.60
2022-10-19T14:03:49.385Z,1.27
2022-10-19T14:06:24.750Z,0.30
2022-10-19T14:09:17.306Z,0.05
2022-10-19T14:11:47.773Z,2.83
2022-10-19T14:14:22.292Z,1.08
2022-10-19T14:17:03.224Z,1.55
2022-10-19T14:19:34.296Z,0.80
2022-10-19T14:22:17.071Z,0.10
2022-10-19T14:24:44.638Z,0.75
2022-10-19T14:27:23.479Z,0.10
2022-10-19T14:29:53.517Z,0.90
2022-10-19T14:32:27.864Z,0.00
2022-10-19T14:34:58.581Z,0.00
2022-10-19T14:37:27.399Z,0.17
2022-10-19T14:39:58.983Z,0.50
2022-10-19T14:42:37.019Z,0.45
2022-10-19T14:45:06.640Z,0.10
2022-10-19T14:47:33.558Z,0.25
2022-10-19T14:50:00.521Z,0.00
2022-10-19T14:52:39.304Z,0.00
2022-10-19T14:55:17.872Z,0.15
2022-10-19T14:57:51.493Z,2.05
2022-10-19T15:00:21.448Z,1.63
2022-10-19T15:03:01.111Z,0.30
2022-10-19T15:05:31.670Z,0.38
2022-10-19T15:08:08.649Z,3.15
2022-10-19T15:10:45.854Z,0.10
2022-10-19T15:13:26.217Z,1.13
2022-10-19T15:15:54.755Z,1.75
2022-10-19T15:18:47.742Z,6.68
2022-10-19T15:23:48.024Z,0.82
2022-10-19T15:26:27.656Z,4.10
2022-10-19T15:29:06.914Z,0.28
2022-10-19T15:31:34.025Z,0.55
2022-10-19T15:34:03.492Z,0.55
2022-10-19T15:36:32.914Z,2.00
2022-10-19T15:39:24.873Z,1.48
2022-10-19T15:41:52.542Z,0.85
2022-10-19T15:44:34.049Z,1.30
2022-10-19T15:47:16.843Z,0.25
2022-10-19T15:49:44.681Z,0.10
2022-10-19T15:52:23.174Z,1.20
2022-10-19T15:54:55.917Z,0.00
2022-10-19T15:57:35.559Z,0.40
2022-10-19T16:00:23.109Z,0.60
2022-10-19T16:02:50.041Z,0.68
2022-10-19T16:05:17.051Z,0.40
2022-10-19T16:07:45.648Z,0.50
2022-10-19T16:10:17.892Z,0.22
2022-10-19T16:12:45.150Z,2.63
2022-10-19T16:15:13.974Z,2.10
2022-10-19T16:17:41.019Z,0.20
2022-10-19T16:20:10.893Z,1.00
2022-10-19T16:22:37.836Z,0.98
2022-10-19T16:25:05.298Z,1.42
2022-10-19T16:27:32.460Z,3.50
2022-10-19T16:30:00.631Z,6.13
2022-10-19T16:32:27.548Z,3.63
2022-10-19T16:34:54.757Z,3.47
2022-10-19T16:37:23.569Z,4.15
2022-10-19T16:39:50.520Z,2.55
2022-10-19T16:42:17.445Z,4.18
2022-10-19T16:44:44.598Z,2.10
2022-10-19T16:47:11.536Z,2.28
2022-10-19T16:49:38.445Z,7.25
2022-10-19T16:52:06.789Z,6.22
2022-10-19T16:54:33.696Z,10.43
2022-10-19T16:57:03.704Z,5.47
2022-10-19T16:59:34.310Z,1.40
2022-10-19T17:02:01.763Z,2.17
2022-10-19T17:04:28.684Z,5.28
2022-10-19T17:06:57.861Z,3.67
2022-10-19T17:09:42.135Z,4.13
2022-10-19T17:12:12.170Z,4.88
2022-10-19T17:14:40.979Z,9.43
2022-10-19T17:17:09.790Z,2.25
2022-10-19T17:19:38.122Z,3.50
2022-10-19T17:22:05.717Z,2.67
2022-10-19T17:24:33.080Z,1.88
2022-10-19T17:27:03.236Z,2.08
2022-10-19T17:29:31.606Z,3.13
2022-10-19T17:32:00.606Z,5.10
2022-10-19T17:34:28.134Z,2.83
2022-10-19T17:36:55.030Z,3.40
2022-10-19T17:39:27.472Z,6.82
2022-10-19T17:42:01.650Z,8.63
2022-10-19T17:44:30.700Z,7.72
2022-10-19T17:46:57.857Z,3.92
2022-10-19T17:49:24.901Z,6.35
2022-10-19T17:51:53.598Z,4.22
2022-10-19T17:54:20.703Z,4.25
2022-10-19T17:56:48.300Z,5.38
2022-10-19T17:59:15.523Z,7.30
2022-10-19T18:01:42.933Z,5.32
2022-10-19T18:04:09.874Z,9.60
2022-10-19T18:06:38.080Z,5.13
2022-10-19T18:09:08.324Z,8.32
2022-10-19T18:11:40.366Z,8.73
2022-10-19T18:14:08.960Z,2.33
2022-10-19T18:16:39.732Z,5.85
2022-10-19T18:19:08.205Z,4.20
2022-10-19T18:21:38.735Z,5.30
2022-10-19T18:24:14.277Z,8.10
2022-10-19T18:26:43.263Z,7.75
2022-10-19T18:29:17.165Z,9.35
2022-10-19T18:31:44.231Z,27.30
2022-10-19T18:34:15.909Z,16.63
2022-10-19T18:36:42.998Z,8.73
2022-10-19T18:39:12.977Z,4.88
2022-10-19T18:41:40.716Z,8.02
2022-10-19T18:44:09.215Z,5.97
2022-10-19T18:46:37.469Z,8.95
2022-10-19T18:49:07.563Z,3.75
2022-10-19T18:51:34.916Z,11.18
2022-10-19T18:54:01.881Z,8.05
2022-10-19T18:56:29.624Z,9.60
2022-10-19T18:59:00.207Z,4.75
2022-10-19T19:01:29.610Z,5.95
2022-10-19T19:03:58.182Z,4.28
2022-10-19T19:06:29.782Z,12.55
2022-10-19T19:08:58.644Z,6.15
2022-10-19T19:11:34.316Z,3.28
2022-10-19T19:14:20.988Z,5.18
2022-10-19T19:16:48.205Z,5.50
2022-10-19T19:19:18.024Z,11.00
2022-10-19T19:21:45.864Z,8.05
2022-10-19T19:24:16.645Z,9.40
2022-10-19T19:26:49.717Z,5.97
2022-10-19T19:29:17.646Z,9.80
2022-10-19T19:31:44.656Z,8.20
2022-10-19T19:34:11.885Z,6.00
2022-10-19T19:39:15.996Z,3.00
2022-10-19T19:41:42.904Z,8.65
2022-10-19T19:44:09.866Z,3.25
2022-10-19T19:46:38.541Z,9.75
2022-10-19T19:49:05.706Z,11.70
2022-10-19T19:51:34.681Z,5.43
2022-10-19T19:54:01.712Z,9.98
2022-10-19T19:56:29.297Z,7.97
2022-10-19T19:58:58.635Z,8.75
2022-10-19T20:01:26.715Z,13.48
2022-10-19T20:03:54.083Z,10.50
2022-10-19T20:06:24.975Z,24.45
2022-10-19T20:08:53.721Z,39.22
2022-10-19T20:11:23.978Z,22.92
2022-10-19T20:13:51.003Z,21.75
2022-10-19T20:16:22.749Z,20.27
2022-10-19T20:18:58.111Z,15.40
2022-10-19T20:21:25.822Z,13.45
2022-10-19T20:23:52.748Z,13.93
2022-10-19T20:26:22.372Z,11.23
2022-10-19T20:28:50.082Z,21.20
2022-10-19T20:31:19.107Z,18.90
2022-10-19T20:33:49.986Z,34.28
2022-10-19T20:36:22.873Z,22.73
2022-10-19T20:38:55.280Z,28.10
2022-10-19T20:41:23.956Z,23.70
2022-10-19T20:43:51.389Z,22.88
2022-10-19T20:46:22.253Z,12.18
2022-10-19T20:48:50.243Z,16.20
2022-10-19T20:51:30.721Z,16.10
2022-10-19T20:54:01.023Z,26.23
2022-10-19T20:56:30.643Z,21.73
2022-10-19T21:01:32.177Z,17.52
2022-10-19T21:04:01.474Z,16.38
2022-10-19T21:06:30.516Z,13.35
2022-10-19T21:08:58.418Z,11.68
2022-10-19T21:11:34.426Z,22.85
2022-10-19T21:14:06.978Z,14.18
2022-10-19T21:16:34.676Z,12.10
2022-10-19T21:19:03.405Z,16.20
2022-10-19T21:21:32.830Z,8.63
2022-10-19T21:24:08.675Z,10.05
2022-10-19T21:26:37.020Z,7.88
2022-10-19T21:29:05.638Z,10.35
2022-10-19T21:31:32.567Z,7.95
2022-10-19T21:33:59.495Z,8.63
2022-10-19T21:36:26.411Z,7.97
2022-10-19T21:38:53.424Z,8.38
2022-10-19T21:41:25.351Z,10.40
2022-10-19T21:43:53.880Z,7.15
2022-10-19T21:46:22.444Z,8.88
2022-10-19T21:48:50.396Z,8.80
2022-10-19T21:51:17.276Z,8.48
2022-10-19T21:53:45.358Z,7.05
2022-10-19T21:56:12.527Z,6.32
2022-10-19T21:58:43.762Z,4.00
2022-10-19T22:01:10.753Z,4.45
2022-10-19T22:03:37.826Z,2.70
2022-10-19T22:06:05.132Z,8.40
2022-10-19T22:08:32.056Z,2.70
2022-10-19T22:11:08.411Z,3.40
2022-10-19T22:13:36.112Z,4.05
2022-10-19T22:16:05.025Z,11.80
2022-10-19T22:18:32.221Z,2.20
2022-10-19T22:21:06.701Z,2.03
2022-10-19T22:23:33.596Z,4.75
2022-10-19T22:26:00.585Z,1.75
2022-10-19T22:28:28.139Z,4.38
2022-10-19T22:30:56.554Z,2.17
2022-10-19T22:33:25.331Z,2.70
2022-10-19T22:35:57.022Z,2.92
2022-10-19T22:38:24.785Z,2.60
2022-10-19T22:41:47.991Z,9.10
2022-10-19T22:44:20.166Z,3.30
2022-10-19T22:46:47.114Z,5.18
2022-10-19T22:49:14.020Z,5.38
2022-10-19T22:51:41.077Z,8.45
2022-10-19T22:54:08.325Z,1.13
2022-10-19T22:56:35.687Z,5.57
2022-10-19T22:59:05.677Z,4.97
2022-10-19T23:01:33.236Z,8.27
2022-10-19T23:04:00.214Z,2.28
2022-10-19T23:06:27.523Z,3.03
2022-10-19T23:08:54.670Z,2.72
2022-10-19T23:11:21.725Z,1.95
2022-10-19T23:13:48.998Z,2.22
2022-10-19T23:16:16.121Z,2.67
2022-10-19T23:18:43.207Z,3.75
2022-10-19T23:21:13.006Z,1.25
2022-10-19T23:23:40.676Z,2.00
2022-10-19T23:26:11.251Z,4.18
2022-10-19T23:28:42.951Z,3.05
2022-10-19T23:31:13.484Z,2.00
2022-10-19T23:33:41.101Z,2.63
2022-10-19T23:36:29.635Z,6.05
2022-10-19T23:38:57.835Z,2.00
2022-10-19T23:41:25.288Z,4.13
2022-10-19T23:43:52.285Z,17.77
2022-10-19T23:46:20.015Z,5.45
2022-10-19T23:48:46.976Z,4.10
2022-10-19T23:51:19.177Z,3.25
2022-10-19T23:53:48.221Z,2.50
2022-10-19T23:56:21.461Z,3.83
2022-10-19T23:58:48.933Z,1.90
